createdAt,value
2017-07-23T00:00:11.574Z,0
2017-07-23T00:01:11.210Z,0
2017-07-23T00:02:11.234Z,0
2017-07-23T00:03:11.203Z,0
2017-07-23T00:04:11.202Z,0
2017-07-23T00:05:11.208Z,0
2017-07-23T00:06:11.517Z,0
2017-07-23T00:07:10.866Z,0
2017-07-23T00:08:11.188Z,0
2017-07-23T00:09:11.189Z,0
2017-07-23T00:10:11.519Z,0
2017-07-23T00:11:11.211Z,0
2017-07-23T00:12:11.188Z,0
2017-07-23T00:13:11.491Z,0
2017-07-23T00:14:11.529Z,0
2017-07-23T00:15:10.848Z,0
2017-07-23T00:16:11.158Z,0
2017-07-23T00:17:11.531Z,0
2017-07-23T00:18:11.197Z,0
2017-07-23T00:19:10.515Z,0
2017-07-23T00:20:11.151Z,0
2017-07-23T00:21:11.467Z,0
2017-07-23T00:22:11.495Z,0
2017-07-23T00:23:11.470Z,0
2017-07-23T00:24:11.175Z,0
2017-07-23T00:25:11.472Z,0
2017-07-23T00:26:10.808Z,0
2017-07-23T00:27:11.149Z,0
2017-07-23T00:28:11.457Z,0
2017-07-23T00:29:11.469Z,0
2017-07-23T00:30:10.798Z,0
2017-07-23T00:31:11.441Z,0
2017-07-23T00:32:11.434Z,0
2017-07-23T00:33:11.117Z,0
2017-07-23T00:34:10.457Z,0
2017-07-23T00:35:11.465Z,0
2017-07-23T00:36:10.774Z,0
2017-07-23T00:37:11.102Z,0
2017-07-23T00:38:10.770Z,0
2017-07-23T00:39:10.772Z,0
2017-07-23T00:40:11.443Z,0
2017-07-23T00:41:11.097Z,0
2017-07-23T00:42:11.417Z,0
2017-07-23T00:43:11.072Z,0
2017-07-23T00:44:11.080Z,0
2017-07-23T00:45:11.073Z,0
2017-07-23T00:46:11.379Z,0
2017-07-23T00:47:10.756Z,0
2017-07-23T00:48:11.392Z,0
2017-07-23T00:49:11.369Z,0
2017-07-23T00:50:10.730Z,0
2017-07-23T00:51:11.362Z,0
2017-07-23T00:52:11.046Z,0
2017-07-23T00:53:10.736Z,0
2017-07-23T00:54:11.060Z,0
2017-07-23T00:55:11.390Z,0
2017-07-23T00:56:11.025Z,0
2017-07-23T00:57:10.710Z,0
2017-07-23T00:58:11.362Z,0
2017-07-23T00:59:11.343Z,0
2017-07-23T01:00:11.336Z,0
2017-07-23T01:01:10.373Z,0
2017-07-23T01:02:11.343Z,0
2017-07-23T01:03:11.330Z,0
2017-07-23T01:04:10.679Z,0
2017-07-23T01:05:10.710Z,0
2017-07-23T01:06:11.329Z,0
2017-07-23T01:07:11.309Z,0
2017-07-23T01:08:11.355Z,0
2017-07-23T01:09:11.003Z,0
2017-07-23T01:10:10.999Z,0
2017-07-23T01:11:10.331Z,0
2017-07-23T01:12:10.339Z,0
2017-07-23T01:13:10.970Z,0
2017-07-23T01:14:10.649Z,0
2017-07-23T01:15:11.342Z,0
2017-07-23T01:16:10.319Z,0
2017-07-23T01:17:11.174Z,0
2017-07-23T01:18:10.967Z,0
2017-07-23T01:19:10.958Z,0
2017-07-23T01:20:10.954Z,0
2017-07-23T01:21:10.965Z,0
2017-07-23T01:22:11.263Z,0
2017-07-23T01:23:11.258Z,0
2017-07-23T01:24:10.935Z,0
2017-07-23T01:25:10.608Z,0
2017-07-23T01:26:10.930Z,0
2017-07-23T01:27:10.952Z,0
2017-07-23T01:28:10.944Z,0
2017-07-23T01:29:10.930Z,0
2017-07-23T01:30:10.926Z,0
2017-07-23T01:31:10.943Z,0
2017-07-23T01:32:10.936Z,0
2017-07-23T01:33:11.241Z,0
2017-07-23T01:34:10.906Z,0
2017-07-23T01:35:11.242Z,0
2017-07-23T01:36:11.249Z,0
2017-07-23T01:37:11.212Z,0
2017-07-23T01:38:10.894Z,0
2017-07-23T01:39:11.216Z,0
2017-07-23T01:40:10.921Z,0
2017-07-23T01:41:11.213Z,0
2017-07-23T01:42:10.257Z,0
2017-07-23T01:43:10.892Z,0
2017-07-23T01:44:10.890Z,0
2017-07-23T01:45:10.868Z,0
2017-07-23T01:46:10.899Z,0
2017-07-23T01:47:10.866Z,0
2017-07-23T01:48:10.542Z,0
2017-07-23T01:49:10.856Z,0
2017-07-23T01:50:11.203Z,0
2017-07-23T01:51:10.867Z,0
2017-07-23T01:52:10.889Z,0
2017-07-23T01:53:10.544Z,0
2017-07-23T01:54:10.846Z,0
2017-07-23T01:55:10.844Z,0
2017-07-23T01:56:11.177Z,0
2017-07-23T01:57:10.529Z,0
2017-07-23T01:58:10.837Z,0
2017-07-23T01:59:11.165Z,0
2017-07-23T02:00:10.853Z,0
2017-07-23T02:01:10.820Z,0
2017-07-23T02:02:11.141Z,0
2017-07-23T02:03:10.830Z,0
2017-07-23T02:04:11.144Z,0
2017-07-23T02:05:10.511Z,0
2017-07-23T02:06:10.160Z,0
2017-07-23T02:07:11.143Z,0
2017-07-23T02:08:11.120Z,0
2017-07-23T02:09:11.117Z,0
2017-07-23T02:10:10.847Z,0
2017-07-23T02:11:10.796Z,0
2017-07-23T02:12:10.816Z,0
2017-07-23T02:13:10.487Z,0
2017-07-23T02:14:10.780Z,0
2017-07-23T02:15:10.459Z,0
2017-07-23T02:16:10.776Z,0
2017-07-23T02:17:10.772Z,0
2017-07-23T02:18:11.111Z,0
2017-07-23T02:19:10.452Z,0
2017-07-23T02:20:11.730Z,0
2017-07-23T02:21:10.121Z,0
2017-07-23T02:22:11.082Z,0
2017-07-23T02:23:10.435Z,0
2017-07-23T02:24:11.078Z,0
2017-07-23T02:25:11.116Z,0
2017-07-23T02:26:10.430Z,0
2017-07-23T02:27:11.069Z,0
2017-07-23T02:28:11.123Z,0
2017-07-23T02:29:10.743Z,0
2017-07-23T02:30:10.450Z,0
2017-07-23T02:31:11.061Z,0
2017-07-23T02:32:10.422Z,0
2017-07-23T02:33:11.077Z,0
2017-07-23T02:34:11.088Z,0
2017-07-23T02:35:10.782Z,0
2017-07-23T02:36:11.058Z,0
2017-07-23T02:37:11.064Z,0
2017-07-23T02:38:10.425Z,0
2017-07-23T02:39:11.061Z,0
2017-07-23T02:40:11.056Z,0
2017-07-23T02:41:10.408Z,0
2017-07-23T02:42:10.740Z,0
2017-07-23T02:43:10.767Z,0
2017-07-23T02:44:10.764Z,0
2017-07-23T02:45:10.433Z,0
2017-07-23T02:46:10.715Z,0
2017-07-23T02:47:11.040Z,0
2017-07-23T02:48:10.395Z,0
2017-07-23T02:49:10.712Z,0
2017-07-23T02:50:10.707Z,0
2017-07-23T02:51:10.703Z,0
2017-07-23T02:52:11.012Z,0
2017-07-23T02:53:10.684Z,0
2017-07-23T02:54:10.384Z,0
2017-07-23T02:55:11.004Z,0
2017-07-23T02:56:11.024Z,0
2017-07-23T02:57:11.028Z,0
2017-07-23T02:58:10.684Z,0
2017-07-23T02:59:10.707Z,0
2017-07-23T03:00:10.992Z,0
2017-07-23T03:01:10.724Z,0
2017-07-23T03:02:11.012Z,0
2017-07-23T03:03:10.036Z,0
2017-07-23T03:04:10.684Z,0
2017-07-23T03:05:10.993Z,0
2017-07-23T03:06:10.012Z,0
2017-07-23T03:07:10.351Z,0
2017-07-23T03:08:10.336Z,0
2017-07-23T03:09:10.974Z,0
2017-07-23T03:10:10.976Z,0
2017-07-23T03:11:10.706Z,0
2017-07-23T03:12:11.015Z,0
2017-07-23T03:13:10.670Z,0
2017-07-23T03:14:10.641Z,0
2017-07-23T03:15:10.968Z,0
2017-07-23T03:16:10.638Z,0
2017-07-23T03:17:10.338Z,0
2017-07-23T03:18:11.002Z,5
2017-07-23T03:19:10.642Z,5
2017-07-23T03:20:10.317Z,5
2017-07-23T03:21:10.997Z,5
2017-07-23T03:22:10.654Z,5
2017-07-23T03:23:10.975Z,5
2017-07-23T03:24:09.981Z,10
2017-07-23T03:25:10.970Z,10
2017-07-23T03:26:10.949Z,10
2017-07-23T03:27:10.977Z,10
2017-07-23T03:28:10.980Z,10
2017-07-23T03:29:10.627Z,10
2017-07-23T03:30:10.642Z,5
2017-07-23T03:31:10.952Z,5
2017-07-23T03:32:10.638Z,5
2017-07-23T03:33:10.949Z,5
2017-07-23T03:34:09.646Z,5
2017-07-23T03:35:10.927Z,5
2017-07-23T03:36:10.610Z,5
2017-07-23T03:37:10.930Z,5
2017-07-23T03:38:10.277Z,5
2017-07-23T03:39:10.602Z,5
2017-07-23T03:40:10.978Z,5
2017-07-23T03:41:10.303Z,5
2017-07-23T03:42:10.594Z,5
2017-07-23T03:43:10.596Z,5
2017-07-23T03:44:10.288Z,5
2017-07-23T03:45:10.911Z,5
2017-07-23T03:46:10.926Z,5
2017-07-23T03:47:10.932Z,5
2017-07-23T03:48:10.609Z,5
2017-07-23T03:49:10.605Z,5
2017-07-23T03:50:10.260Z,5
2017-07-23T03:51:10.583Z,5
2017-07-23T03:52:10.584Z,5
2017-07-23T03:53:10.915Z,5
2017-07-23T03:54:09.939Z,5
2017-07-23T03:55:10.896Z,5
2017-07-23T03:56:10.273Z,5
2017-07-23T03:57:10.597Z,5
2017-07-23T03:58:10.612Z,5
2017-07-23T03:59:10.568Z,5
2017-07-23T04:00:10.252Z,5
2017-07-23T04:01:10.888Z,5
2017-07-23T04:02:10.569Z,5
2017-07-23T04:03:10.257Z,5
2017-07-23T04:04:10.572Z,5
2017-07-23T04:05:10.243Z,5
2017-07-23T04:06:10.574Z,10
2017-07-23T04:07:10.575Z,10
2017-07-23T04:08:10.760Z,10
2017-07-23T04:09:10.872Z,10
2017-07-23T04:10:10.563Z,10
2017-07-23T04:11:10.552Z,10
2017-07-23T04:12:10.546Z,10
2017-07-23T04:13:10.866Z,10
2017-07-23T04:14:10.890Z,15
2017-07-23T04:15:10.556Z,15
2017-07-23T04:16:10.237Z,15
2017-07-23T04:17:10.873Z,15
2017-07-23T04:18:10.876Z,15
2017-07-23T04:19:10.236Z,15
2017-07-23T04:20:10.906Z,15
2017-07-23T04:21:10.859Z,20
2017-07-23T04:22:10.247Z,20
2017-07-23T04:23:10.206Z,20
2017-07-23T04:24:10.221Z,20
2017-07-23T04:25:10.540Z,20
2017-07-23T04:26:10.885Z,25
2017-07-23T04:27:10.861Z,25
2017-07-23T04:28:10.560Z,25
2017-07-23T04:29:10.855Z,30
2017-07-23T04:30:10.551Z,30
2017-07-23T04:31:09.896Z,30
2017-07-23T04:32:10.204Z,30
2017-07-23T04:33:10.857Z,30
2017-07-23T04:34:10.837Z,30
2017-07-23T04:35:10.844Z,30
2017-07-23T04:36:10.550Z,35
2017-07-23T04:37:10.835Z,35
2017-07-23T04:38:10.844Z,35
2017-07-23T04:39:10.534Z,35
2017-07-23T04:40:10.512Z,35
2017-07-23T04:41:10.514Z,35
2017-07-23T04:42:10.812Z,35
2017-07-23T04:43:10.514Z,35
2017-07-23T04:44:10.492Z,35
2017-07-23T04:45:10.167Z,35
2017-07-23T04:46:10.841Z,35
2017-07-23T04:47:10.489Z,35
2017-07-23T04:48:10.803Z,35
2017-07-23T04:49:10.508Z,35
2017-07-23T04:50:10.799Z,35
2017-07-23T04:51:10.802Z,45
2017-07-23T04:52:10.480Z,50
2017-07-23T04:53:10.150Z,50
2017-07-23T04:54:10.144Z,55
2017-07-23T04:55:10.485Z,55
2017-07-23T04:56:10.471Z,65
2017-07-23T04:57:10.465Z,70
2017-07-23T04:58:10.463Z,75
2017-07-23T04:59:10.471Z,80
2017-07-23T05:00:10.460Z,85
2017-07-23T05:01:10.165Z,90
2017-07-23T05:02:10.137Z,90
2017-07-23T05:03:10.469Z,90
2017-07-23T05:04:10.141Z,90
2017-07-23T05:05:10.170Z,90
2017-07-23T05:06:10.132Z,90
2017-07-23T05:07:10.785Z,90
2017-07-23T05:08:10.470Z,90
2017-07-23T05:09:10.806Z,90
2017-07-23T05:10:09.808Z,90
2017-07-23T05:11:10.134Z,95
2017-07-23T05:12:10.435Z,95
2017-07-23T05:13:10.475Z,100
2017-07-23T05:14:10.751Z,100
2017-07-23T05:15:10.146Z,100
2017-07-23T05:16:10.436Z,100
2017-07-23T05:17:10.752Z,95
2017-07-23T05:18:10.445Z,95
2017-07-23T05:19:10.120Z,95
2017-07-23T05:20:10.413Z,95
2017-07-23T05:21:10.745Z,90
2017-07-23T05:22:09.471Z,90
2017-07-23T05:23:10.411Z,90
2017-07-23T05:24:10.745Z,90
2017-07-23T05:25:10.425Z,90
2017-07-23T05:26:10.419Z,90
2017-07-23T05:27:10.454Z,90
2017-07-23T05:28:10.751Z,90
2017-07-23T05:29:10.744Z,90
2017-07-23T05:30:10.105Z,85
2017-07-23T05:31:10.415Z,85
2017-07-23T05:32:10.414Z,85
2017-07-23T05:33:10.435Z,80
2017-07-23T05:34:10.721Z,80
2017-07-23T05:35:10.402Z,75
2017-07-23T05:36:10.417Z,75
2017-07-23T05:37:10.765Z,75
2017-07-23T05:38:10.403Z,75
2017-07-23T05:39:10.403Z,75
2017-07-23T05:40:10.068Z,70
2017-07-23T05:41:10.404Z,70
2017-07-23T05:42:10.072Z,70
2017-07-23T05:43:10.079Z,65
2017-07-23T05:44:10.385Z,65
2017-07-23T05:45:10.388Z,65
2017-07-23T05:46:10.397Z,65
2017-07-23T05:47:10.368Z,60
2017-07-23T05:48:10.367Z,50
2017-07-23T05:49:10.365Z,45
2017-07-23T05:50:10.700Z,50
2017-07-23T05:51:09.737Z,50
2017-07-23T05:52:10.373Z,55
2017-07-23T05:53:10.700Z,60
2017-07-23T05:54:10.356Z,60
2017-07-23T05:55:10.674Z,65
2017-07-23T05:56:10.673Z,65
2017-07-23T05:57:10.051Z,65
2017-07-23T05:58:10.023Z,70
2017-07-23T05:59:10.354Z,70
2017-07-23T06:00:09.725Z,70
2017-07-23T06:01:10.357Z,70
2017-07-23T06:02:10.072Z,70
2017-07-23T06:03:10.355Z,70
2017-07-23T06:04:10.390Z,70
2017-07-23T06:05:10.681Z,70
2017-07-23T06:06:10.655Z,70
2017-07-23T06:07:10.674Z,65
2017-07-23T06:08:10.327Z,65
2017-07-23T06:09:10.681Z,65
2017-07-23T06:10:10.323Z,60
2017-07-23T06:11:10.322Z,60
2017-07-23T06:12:09.718Z,60
2017-07-23T06:13:10.315Z,65
2017-07-23T06:14:10.656Z,70
2017-07-23T06:15:10.648Z,80
2017-07-23T06:16:10.646Z,85
2017-07-23T06:17:10.658Z,85
2017-07-23T06:18:10.625Z,85
2017-07-23T06:19:10.622Z,75
2017-07-23T06:20:10.639Z,75
2017-07-23T06:21:10.635Z,85
2017-07-23T06:22:10.350Z,85
2017-07-23T06:23:10.325Z,85
2017-07-23T06:24:10.306Z,85
2017-07-23T06:25:09.990Z,75
2017-07-23T06:26:10.016Z,70
2017-07-23T06:27:10.300Z,80
2017-07-23T06:28:10.161Z,90
2017-07-23T06:29:10.599Z,100
2017-07-23T06:30:09.961Z,100
2017-07-23T06:31:10.301Z,100
2017-07-23T06:32:10.602Z,105
2017-07-23T06:33:10.604Z,110
2017-07-23T06:34:10.269Z,115
2017-07-23T06:35:09.960Z,115
2017-07-23T06:36:10.584Z,110
2017-07-23T06:37:10.267Z,105
2017-07-23T06:38:10.274Z,100
2017-07-23T06:39:09.960Z,90
2017-07-23T06:40:09.951Z,85
2017-07-23T06:41:09.935Z,85
2017-07-23T06:42:10.591Z,85
2017-07-23T06:43:09.948Z,85
2017-07-23T06:44:10.254Z,85
2017-07-23T06:45:10.257Z,85
2017-07-23T06:46:10.260Z,85
2017-07-23T06:47:09.925Z,85
2017-07-23T06:48:09.614Z,85
2017-07-23T06:49:10.246Z,90
2017-07-23T06:50:10.243Z,90
2017-07-23T06:51:10.263Z,90
2017-07-23T06:52:10.255Z,85
2017-07-23T06:53:09.918Z,85
2017-07-23T06:54:10.545Z,90
2017-07-23T06:55:10.553Z,95
2017-07-23T06:56:10.574Z,105
2017-07-23T06:57:10.227Z,110
2017-07-23T06:58:10.272Z,105
2017-07-23T06:59:10.094Z,95
2017-07-23T07:00:10.234Z,90
2017-07-23T07:01:09.919Z,95
2017-07-23T07:02:10.220Z,95
2017-07-23T07:03:10.219Z,95
2017-07-23T07:04:10.521Z,95
2017-07-23T07:05:10.203Z,95
2017-07-23T07:06:09.880Z,90
2017-07-23T07:07:10.533Z,90
2017-07-23T07:08:10.198Z,95
2017-07-23T07:09:10.536Z,100
2017-07-23T07:10:09.902Z,100
2017-07-23T07:11:10.504Z,100
2017-07-23T07:12:09.548Z,100
2017-07-23T07:13:09.908Z,95
2017-07-23T07:14:09.851Z,95
2017-07-23T07:15:10.500Z,90
2017-07-23T07:16:10.169Z,90
2017-07-23T07:17:10.504Z,95
2017-07-23T07:18:10.489Z,100
2017-07-23T07:19:10.504Z,105
2017-07-23T07:20:10.496Z,110
2017-07-23T07:21:10.509Z,115
2017-07-23T07:22:10.260Z,120
2017-07-23T07:23:09.838Z,135
2017-07-23T07:24:10.175Z,155
2017-07-23T07:25:10.149Z,200
2017-07-23T07:26:10.177Z,225
2017-07-23T07:27:10.168Z,255
2017-07-23T07:28:10.502Z,280
2017-07-23T07:29:10.190Z,300
2017-07-23T07:30:09.848Z,325
2017-07-23T07:31:10.470Z,370
2017-07-23T07:32:10.159Z,410
2017-07-23T07:33:09.828Z,455
2017-07-23T07:34:10.141Z,515
2017-07-23T07:35:09.874Z,720
2017-07-23T07:36:10.130Z,640
2017-07-23T07:37:10.124Z,765
2017-07-23T07:38:10.121Z,690
2017-07-23T07:39:10.475Z,420
2017-07-23T07:40:09.817Z,375
2017-07-23T07:41:10.148Z,340
2017-07-23T07:42:10.484Z,330
2017-07-23T07:43:09.799Z,305
2017-07-23T07:44:10.125Z,245
2017-07-23T07:45:10.130Z,180
2017-07-23T07:46:10.116Z,175
2017-07-23T07:47:10.150Z,190
2017-07-23T07:48:09.496Z,200
2017-07-23T07:49:09.799Z,180
2017-07-23T07:50:10.144Z,135
2017-07-23T07:51:10.439Z,115
2017-07-23T07:52:09.806Z,125
2017-07-23T07:53:10.119Z,115
2017-07-23T07:54:10.459Z,140
2017-07-23T07:55:10.133Z,180
2017-07-23T07:56:10.452Z,165
2017-07-23T07:57:09.821Z,140
2017-07-23T07:58:09.810Z,140
2017-07-23T07:59:10.483Z,130
2017-07-23T08:00:09.798Z,110
2017-07-23T08:01:09.824Z,80
2017-07-23T08:02:10.118Z,60
2017-07-23T08:03:10.432Z,50
2017-07-23T08:04:10.436Z,40
2017-07-23T08:05:10.111Z,65
2017-07-23T08:06:10.116Z,90
2017-07-23T08:07:10.135Z,90
2017-07-23T08:08:10.130Z,75
2017-07-23T08:09:10.433Z,55
2017-07-23T08:10:10.426Z,60
2017-07-23T08:11:10.119Z,60
2017-07-23T08:12:10.108Z,35
2017-07-23T08:13:10.105Z,20
2017-07-23T08:14:09.809Z,15
2017-07-23T08:15:10.433Z,20
2017-07-23T08:16:10.095Z,20
2017-07-23T08:17:10.425Z,40
2017-07-23T08:18:10.445Z,40
2017-07-23T08:19:10.089Z,45
2017-07-23T08:20:09.451Z,50
2017-07-23T08:21:10.091Z,55
2017-07-23T08:22:10.089Z,55
2017-07-23T08:23:09.445Z,65
2017-07-23T08:24:10.410Z,80
2017-07-23T08:25:10.441Z,95
2017-07-23T08:26:10.076Z,120
2017-07-23T08:27:10.079Z,135
2017-07-23T08:28:10.101Z,130
2017-07-23T08:29:10.389Z,115
2017-07-23T08:30:10.120Z,100
2017-07-23T08:31:10.065Z,100
2017-07-23T08:32:10.056Z,145
2017-07-23T08:33:09.771Z,180
2017-07-23T08:34:10.378Z,180
2017-07-23T08:35:10.071Z,185
2017-07-23T08:36:10.116Z,180
2017-07-23T08:37:09.731Z,175
2017-07-23T08:38:09.758Z,160
2017-07-23T08:39:10.058Z,135
2017-07-23T08:40:10.378Z,175
2017-07-23T08:41:09.731Z,250
2017-07-23T08:42:10.025Z,365
2017-07-23T08:43:10.078Z,390
2017-07-23T08:44:10.033Z,335
2017-07-23T08:45:09.387Z,275
2017-07-23T08:46:09.440Z,270
2017-07-23T08:47:10.068Z,280
2017-07-23T08:48:09.690Z,225
2017-07-23T08:49:10.028Z,180
2017-07-23T08:50:09.688Z,165
2017-07-23T08:51:09.696Z,155
2017-07-23T08:52:09.768Z,150
2017-07-23T08:53:10.064Z,160
2017-07-23T08:54:10.349Z,180
2017-07-23T08:55:10.307Z,205
2017-07-23T08:56:09.660Z,260
2017-07-23T08:57:09.978Z,305
2017-07-23T08:58:09.984Z,305
2017-07-23T08:59:09.984Z,325
2017-07-23T09:00:09.988Z,400
2017-07-23T09:01:09.654Z,520
2017-07-23T09:02:09.640Z,585
2017-07-23T09:03:10.278Z,605
2017-07-23T09:04:09.973Z,650
2017-07-23T09:05:09.976Z,630
2017-07-23T09:06:09.951Z,580
2017-07-23T09:07:09.319Z,525
2017-07-23T09:08:09.630Z,530
2017-07-23T09:09:09.638Z,535
2017-07-23T09:10:09.635Z,625
2017-07-23T09:11:09.940Z,635
2017-07-23T09:12:09.945Z,575
2017-07-23T09:13:09.953Z,530
2017-07-23T09:14:09.644Z,470
2017-07-23T09:15:09.616Z,430
2017-07-23T09:16:09.323Z,390
2017-07-23T09:17:10.281Z,345
2017-07-23T09:18:09.983Z,325
2017-07-23T09:19:10.255Z,300
2017-07-23T09:20:10.265Z,295
2017-07-23T09:21:09.990Z,290
2017-07-23T09:22:09.637Z,310
2017-07-23T09:23:09.281Z,335
2017-07-23T09:24:10.256Z,335
2017-07-23T09:25:09.593Z,315
2017-07-23T09:26:10.233Z,295
2017-07-23T09:27:09.645Z,285
2017-07-23T09:28:09.915Z,275
2017-07-23T09:29:10.237Z,290
2017-07-23T09:30:09.913Z,295
2017-07-23T09:31:10.240Z,280
2017-07-23T09:32:10.257Z,255
2017-07-23T09:33:09.609Z,235
2017-07-23T09:34:09.945Z,200
2017-07-23T09:35:10.230Z,170
2017-07-23T09:36:09.903Z,150
2017-07-23T09:37:10.245Z,160
2017-07-23T09:38:09.918Z,175
2017-07-23T09:39:09.895Z,215
2017-07-23T09:40:10.233Z,255
2017-07-23T09:41:09.898Z,290
2017-07-23T09:42:09.890Z,320
2017-07-23T09:43:09.889Z,350
2017-07-23T09:44:10.234Z,370
2017-07-23T09:45:09.903Z,400
2017-07-23T09:46:09.564Z,420
2017-07-23T09:47:09.911Z,420
2017-07-23T09:48:09.906Z,440
2017-07-23T09:49:09.915Z,460
2017-07-23T09:50:09.654Z,475
2017-07-23T09:51:09.880Z,485
2017-07-23T09:52:09.556Z,495
2017-07-23T09:53:09.886Z,530
2017-07-23T09:54:10.205Z,565
2017-07-23T09:55:09.919Z,575
2017-07-23T09:56:09.565Z,565
2017-07-23T09:57:09.937Z,525
2017-07-23T09:58:09.866Z,490
2017-07-23T09:59:09.587Z,465
2017-07-23T10:00:09.886Z,420
2017-07-23T10:01:09.552Z,395
2017-07-23T10:02:09.899Z,365
2017-07-23T10:03:09.880Z,375
2017-07-23T10:04:09.886Z,385
2017-07-23T10:05:10.236Z,365
2017-07-23T10:06:09.534Z,310
2017-07-23T10:07:09.894Z,300
2017-07-23T10:08:09.867Z,320
2017-07-23T10:09:11.736Z,345
2017-07-23T10:10:09.860Z,385
2017-07-23T10:11:09.531Z,405
2017-07-23T10:12:09.851Z,415
2017-07-23T10:13:10.176Z,410
2017-07-23T10:14:10.172Z,390
2017-07-23T10:15:09.582Z,380
2017-07-23T10:16:09.875Z,390
2017-07-23T10:17:09.868Z,400
2017-07-23T10:18:10.202Z,415
2017-07-23T10:19:09.852Z,400
2017-07-23T10:20:09.889Z,400
2017-07-23T10:21:10.220Z,430
2017-07-23T10:22:09.552Z,505
2017-07-23T10:23:09.857Z,535
2017-07-23T10:24:10.196Z,530
2017-07-23T10:25:09.849Z,515
2017-07-23T10:26:10.873Z,475
2017-07-23T10:27:10.187Z,445
2017-07-23T10:28:09.558Z,435
2017-07-23T10:29:10.161Z,440
2017-07-23T10:30:09.866Z,465
2017-07-23T10:31:09.538Z,475
2017-07-23T10:32:09.861Z,485
2017-07-23T10:33:09.524Z,505
2017-07-23T10:34:09.844Z,525
2017-07-23T10:35:09.853Z,590
2017-07-23T10:36:10.164Z,660
2017-07-23T10:37:09.558Z,640
2017-07-23T10:38:10.191Z,655
2017-07-23T10:39:09.529Z,640
2017-07-23T10:40:10.194Z,590
2017-07-23T10:41:10.174Z,560
2017-07-23T10:42:09.896Z,555
2017-07-23T10:43:10.186Z,570
2017-07-23T10:44:09.529Z,580
2017-07-23T10:45:10.191Z,575
2017-07-23T10:46:09.898Z,590
2017-07-23T10:47:09.559Z,575
2017-07-23T10:48:09.858Z,580
2017-07-23T10:49:09.581Z,570
2017-07-23T10:50:09.853Z,550
2017-07-23T10:51:10.223Z,545
2017-07-23T10:52:09.863Z,580
2017-07-23T10:53:09.545Z,630
2017-07-23T10:54:09.542Z,635
2017-07-23T10:55:10.180Z,565
2017-07-23T10:56:08.892Z,530
2017-07-23T10:57:09.857Z,455
2017-07-23T10:58:09.551Z,405
2017-07-23T10:59:09.880Z,395
2017-07-23T11:00:09.858Z,400
2017-07-23T11:01:09.887Z,385
2017-07-23T11:02:09.546Z,405
2017-07-23T11:03:09.553Z,420
2017-07-23T11:04:09.885Z,515
2017-07-23T11:05:09.887Z,530
2017-07-23T11:06:09.572Z,530
2017-07-23T11:07:10.241Z,540
2017-07-23T11:08:10.211Z,575
2017-07-23T11:09:09.878Z,615
2017-07-23T11:10:09.575Z,560
2017-07-23T11:11:09.879Z,550
2017-07-23T11:12:09.879Z,540
2017-07-23T11:13:09.878Z,560
2017-07-23T11:14:10.229Z,545
2017-07-23T11:15:09.884Z,510
2017-07-23T11:16:09.899Z,420
2017-07-23T11:17:15.178Z,365
2017-07-23T11:18:09.914Z,390
2017-07-23T11:19:09.914Z,390
2017-07-23T11:20:10.225Z,360
2017-07-23T11:21:09.901Z,325
2017-07-23T11:22:09.624Z,275
2017-07-23T11:23:10.268Z,220
2017-07-23T11:24:09.942Z,295
2017-07-23T11:25:09.638Z,240
2017-07-23T11:26:09.608Z,200
2017-07-23T11:27:09.916Z,235
2017-07-23T11:28:10.246Z,255
2017-07-23T11:29:09.929Z,225
2017-07-23T11:30:10.235Z,230
2017-07-23T11:31:09.918Z,245
2017-07-23T11:32:09.591Z,260
2017-07-23T11:33:10.243Z,295
2017-07-23T11:34:09.598Z,335
2017-07-23T11:35:09.922Z,390
2017-07-23T11:36:09.273Z,395
2017-07-23T11:37:10.267Z,370
2017-07-23T11:38:10.288Z,400
2017-07-23T11:39:09.940Z,380
2017-07-23T11:40:09.927Z,385
2017-07-23T11:41:09.625Z,365
2017-07-23T11:42:09.285Z,370
2017-07-23T11:43:09.632Z,395
2017-07-23T11:44:09.949Z,350
2017-07-23T11:45:09.948Z,315
2017-07-23T11:46:09.930Z,385
2017-07-23T11:47:09.612Z,465
2017-07-23T11:48:09.954Z,460
2017-07-23T11:49:09.956Z,420
2017-07-23T11:50:09.612Z,395
2017-07-23T11:51:09.957Z,405
2017-07-23T11:52:09.963Z,390
2017-07-23T11:53:09.953Z,350
2017-07-23T11:54:10.030Z,345
2017-07-23T11:55:09.649Z,385
2017-07-23T11:56:09.983Z,420
2017-07-23T11:57:09.628Z,435
2017-07-23T11:58:09.984Z,515
2017-07-23T11:59:09.958Z,555
2017-07-23T12:00:10.003Z,495
2017-07-23T12:01:10.285Z,330
2017-07-23T12:02:10.283Z,275
2017-07-23T12:03:10.292Z,230
2017-07-23T12:04:09.986Z,205
2017-07-23T12:05:09.960Z,210
2017-07-23T12:06:09.343Z,205
2017-07-23T12:07:10.291Z,210
2017-07-23T12:08:09.968Z,255
2017-07-23T12:09:10.298Z,290
2017-07-23T12:10:10.288Z,350
2017-07-23T12:11:09.980Z,435
2017-07-23T12:12:10.293Z,340
2017-07-23T12:13:09.988Z,355
2017-07-23T12:14:09.995Z,435
2017-07-23T12:15:09.390Z,485
2017-07-23T12:16:09.962Z,485
2017-07-23T12:17:09.649Z,460
2017-07-23T12:18:09.973Z,415
2017-07-23T12:19:10.299Z,345
2017-07-23T12:20:10.323Z,270
2017-07-23T12:21:09.654Z,245
2017-07-23T12:22:09.668Z,235
2017-07-23T12:23:09.995Z,225
2017-07-23T12:24:09.984Z,215
2017-07-23T12:25:10.340Z,210
2017-07-23T12:26:10.308Z,215
2017-07-23T12:27:09.664Z,215
2017-07-23T12:28:10.013Z,205
2017-07-23T12:29:09.989Z,205
2017-07-23T12:30:09.667Z,220
2017-07-23T12:31:10.013Z,200
2017-07-23T12:32:10.338Z,190
2017-07-23T12:33:09.032Z,215
2017-07-23T12:34:10.027Z,230
2017-07-23T12:35:09.726Z,230
2017-07-23T12:36:09.995Z,265
2017-07-23T12:37:10.326Z,350
2017-07-23T12:38:10.004Z,415
2017-07-23T12:39:10.006Z,430
2017-07-23T12:40:09.691Z,425
2017-07-23T12:41:09.700Z,370
2017-07-23T12:42:10.342Z,315
2017-07-23T12:43:09.705Z,270
2017-07-23T12:44:10.007Z,235
2017-07-23T12:45:10.029Z,255
2017-07-23T12:46:10.010Z,335
2017-07-23T12:47:09.691Z,385
2017-07-23T12:48:11.812Z,445
2017-07-23T12:49:10.028Z,380
2017-07-23T12:50:09.692Z,295
2017-07-23T12:51:10.354Z,280
2017-07-23T12:52:10.067Z,255
2017-07-23T12:53:10.360Z,275
2017-07-23T12:54:09.380Z,310
2017-07-23T12:55:09.730Z,325
2017-07-23T12:56:10.353Z,350
2017-07-23T12:57:09.733Z,380
2017-07-23T12:58:10.030Z,265
2017-07-23T12:59:09.727Z,225
2017-07-23T13:00:10.034Z,270
2017-07-23T13:01:10.354Z,385
2017-07-23T13:02:10.062Z,340
2017-07-23T13:03:10.055Z,360
2017-07-23T13:04:09.746Z,375
2017-07-23T13:05:10.063Z,380
2017-07-23T13:06:10.378Z,315
2017-07-23T13:07:09.416Z,280
2017-07-23T13:08:09.740Z,295
2017-07-23T13:09:10.046Z,280
2017-07-23T13:10:10.053Z,265
2017-07-23T13:11:10.074Z,240
2017-07-23T13:12:09.748Z,255
2017-07-23T13:13:10.064Z,270
2017-07-23T13:14:09.745Z,325
2017-07-23T13:15:10.083Z,365
2017-07-23T13:16:10.082Z,405
2017-07-23T13:17:09.763Z,410
2017-07-23T13:18:10.072Z,395
2017-07-23T13:19:09.752Z,395
2017-07-23T13:20:10.069Z,360
2017-07-23T13:21:10.414Z,345
2017-07-23T13:22:10.096Z,325
2017-07-23T13:23:09.435Z,325
2017-07-23T13:24:10.099Z,300
2017-07-23T13:25:09.757Z,295
2017-07-23T13:26:09.756Z,295
2017-07-23T13:27:10.099Z,260
2017-07-23T13:28:10.096Z,215
2017-07-23T13:29:10.406Z,180
2017-07-23T13:30:10.089Z,165
2017-07-23T13:31:10.097Z,170
2017-07-23T13:32:10.426Z,205
2017-07-23T13:33:10.428Z,230
2017-07-23T13:34:09.809Z,225
2017-07-23T13:35:10.124Z,220
2017-07-23T13:36:10.104Z,240
2017-07-23T13:37:10.101Z,270
2017-07-23T13:38:10.103Z,275
2017-07-23T13:39:10.436Z,285
2017-07-23T13:40:10.447Z,245
2017-07-23T13:41:09.841Z,230
2017-07-23T13:42:10.429Z,230
2017-07-23T13:43:10.128Z,260
2017-07-23T13:44:10.465Z,285
2017-07-23T13:45:10.463Z,355
2017-07-23T13:46:10.144Z,500
2017-07-23T13:47:10.108Z,480
2017-07-23T13:48:10.454Z,385
2017-07-23T13:49:10.435Z,330
2017-07-23T13:50:10.457Z,280
2017-07-23T13:51:10.439Z,265
2017-07-23T13:52:09.475Z,240
2017-07-23T13:53:10.148Z,230
2017-07-23T13:54:10.441Z,205
2017-07-23T13:55:10.471Z,205
2017-07-23T13:56:09.489Z,205
2017-07-23T13:57:10.451Z,200
2017-07-23T13:58:10.455Z,205
2017-07-23T13:59:10.466Z,205
2017-07-23T14:00:09.820Z,205
2017-07-23T14:01:10.152Z,205
2017-07-23T14:02:10.159Z,205
2017-07-23T14:03:09.828Z,220
2017-07-23T14:04:10.164Z,240
2017-07-23T14:05:10.164Z,235
2017-07-23T14:06:10.196Z,230
2017-07-23T14:07:10.138Z,230
2017-07-23T14:08:10.460Z,250
2017-07-23T14:09:10.139Z,295